Lyme Center, New Hampshire
Current Conditions -  °F | °C
As of 6:53 AM on Monday 24 Nov 2014 (Local Time) from KLEB Reporting Station
Light Rain Light Rain  
Wind Chill: 44°   Ceiling: 3700
Heat Index: 44°   Visibility: 5mi
Dew Point: 41°   Wind: 3mph
Humidity: 89%   Direction: NA
Pressure: 29.74"   Gusts: NA
Location:  43.8°N, 72.12°W
Report Text: KLEB 241153Z VRB03KT 5SM -RA BR FEW014 OVC037 07/05 A2974 RMK AO2 PRESFR SLP073 P0012 60025 70025 T00670050 10067 20011 56045
Loading
Personal Weather Stations






























Interactive Weather Map New forecast layout! Learn more

10-Day Weather Forecast

Advertisements
Track Severe Weather on mobile